sensor_id;sensor_type;location;lat;lon;timestamp;pressure;altitude;pressure_sealevel;temperature;humidity
14818;BME280;7500;57.698;11.986;2023-02-20T00:00:27;100939.91;;;7.53;100.00
14818;BME280;7500;57.698;11.986;2023-02-20T00:02:54;100941.09;;;7.69;100.00
14818;BME280;7500;57.698;11.986;2023-02-20T00:05:21;100935.81;;;7.46;100.00
14818;BME280;7500;57.698;11.986;2023-02-20T00:07:48;100929.16;;;7.36;100.00
14818;BME280;7500;57.698;11.986;2023-02-20T00:12:42;100916.38;;;7.50;100.00
14818;BME280;7500;57.698;11.986;2023-02-20T00:15:11;100901.50;;;7.50;100.00
14818;BME280;7500;57.698;11.986;2023-02-20T00:17:42;100894.31;;;7.31;100.00
14818;BME280;7500;57.698;11.986;2023-02-20T00:20:13;100872.81;;;7.21;100.00
14818;BME280;7500;57.698;11.986;2023-02-20T00:22:39;100885.44;;;7.35;100.00
14818;BME280;7500;57.698;11.986;2023-02-20T00:25:07;100867.69;;;7.17;100.00
14818;BME280;7500;57.698;11.986;2023-02-20T00:27:33;100846.47;;;7.23;100.00
14818;BME280;7500;57.698;11.986;2023-02-20T00:30:01;100842.69;;;7.07;100.00
14818;BME280;7500;57.698;11.986;2023-02-20T00:32:28;100832.00;;;7.13;100.00
14818;BME280;7500;57.698;11.986;2023-02-20T00:34:56;100843.31;;;7.13;100.00
14818;BME280;7500;57.698;11.986;2023-02-20T00:37:23;100844.44;;;7.31;100.00
14818;BME280;7500;57.698;11.986;2023-02-20T00:39:50;100824.44;;;7.50;100.00
14818;BME280;7500;57.698;11.986;2023-02-20T00:42:16;101030.38;;;7.46;100.00
14818;BME280;7500;57.698;11.986;2023-02-20T00:44:43;100999.53;;;7.51;100.00
14818;BME280;7500;57.698;11.986;2023-02-20T00:47:10;100940.31;;;7.42;100.00
14818;BME280;7500;57.698;11.986;2023-02-20T00:49:37;100898.88;;;7.50;100.00
14818;BME280;7500;57.698;11.986;2023-02-20T00:52:05;100833.22;;;7.26;100.00
14818;BME280;7500;57.698;11.986;2023-02-20T00:54:32;100808.25;;;7.39;100.00
14818;BME280;7500;57.698;11.986;2023-02-20T00:57:00;100779.63;;;7.31;100.00
14818;BME280;7500;57.698;11.986;2023-02-20T00:59:27;100772.69;;;7.30;100.00
14818;BME280;7500;57.698;11.986;2023-02-20T01:01:54;100752.78;;;7.46;100.00
14818;BME280;7500;57.698;11.986;2023-02-20T01:04:21;100715.47;;;7.38;100.00
14818;BME280;7500;57.698;11.986;2023-02-20T01:06:48;100723.59;;;7.54;100.00
14818;BME280;7500;57.698;11.986;2023-02-20T01:09:16;100700.94;;;7.30;100.00
14818;BME280;7500;57.698;11.986;2023-02-20T01:11:43;100676.38;;;7.31;100.00
14818;BME280;7500;57.698;11.986;2023-02-20T01:14:11;100657.81;;;7.35;100.00
14818;BME280;7500;57.698;11.986;2023-02-20T01:16:43;101088.59;;;7.32;100.00
14818;BME280;7500;57.698;11.986;2023-02-20T01:19:10;101038.75;;;7.31;100.00
14818;BME280;7500;57.698;11.986;2023-02-20T01:21:37;100944.22;;;7.31;100.00
14818;BME280;7500;57.698;11.986;2023-02-20T01:24:04;100858.38;;;7.33;100.00
14818;BME280;7500;57.698;11.986;2023-02-20T01:26:32;100776.84;;;7.36;100.00
14818;BME280;7500;57.698;11.986;2023-02-20T01:29:01;100709.28;;;7.39;100.00
14818;BME280;7500;57.698;11.986;2023-02-20T01:31:28;101429.03;;;7.36;100.00
14818;BME280;7500;57.698;11.986;2023-02-20T01:33:55;101347.66;;;7.35;100.00
14818;BME280;7500;57.698;11.986;2023-02-20T01:36:22;101238.50;;;7.26;100.00
14818;BME280;7500;57.698;11.986;2023-02-20T01:38:48;101160.38;;;7.33;100.00
14818;BME280;7500;57.698;11.986;2023-02-20T01:41:15;101140.81;;;7.43;100.00
14818;BME280;7500;57.698;11.986;2023-02-20T01:43:45;101045.16;;;7.48;100.00
14818;BME280;7500;57.698;11.986;2023-02-20T01:46:45;100927.56;;;7.32;100.00
14818;BME280;7500;57.698;11.986;2023-02-20T01:49:15;100798.41;;;7.21;100.00
14818;BME280;7500;57.698;11.986;2023-02-20T01:51:48;100744.72;;;7.51;100.00
14818;BME280;7500;57.698;11.986;2023-02-20T01:54:19;100755.59;;;7.42;100.00
14818;BME280;7500;57.698;11.986;2023-02-20T01:56:48;100704.53;;;7.49;100.00
14818;BME280;7500;57.698;11.986;2023-02-20T01:59:18;100655.53;;;7.48;100.00
14818;BME280;7500;57.698;11.986;2023-02-20T02:01:47;100639.19;;;7.41;100.00
14818;BME280;7500;57.698;11.986;2023-02-20T02:04:15;100664.34;;;7.25;100.00
14818;BME280;7500;57.698;11.986;2023-02-20T02:06:46;100642.97;;;7.34;100.00
14818;BME280;7500;57.698;11.986;2023-02-20T02:09:20;100634.16;;;7.35;100.00
14818;BME280;7500;57.698;11.986;2023-02-20T02:11:49;100601.75;;;7.36;100.00
14818;BME280;7500;57.698;11.986;2023-02-20T02:14:17;100627.63;;;7.45;100.00
14818;BME280;7500;57.698;11.986;2023-02-20T02:17:06;100588.78;;;7.53;100.00
14818;BME280;7500;57.698;11.986;2023-02-20T02:20:03;100600.47;;;7.46;100.00
14818;BME280;7500;57.698;11.986;2023-02-20T02:23:13;100555.34;;;7.57;100.00
14818;BME280;7500;57.698;11.986;2023-02-20T02:25:51;100517.53;;;7.61;100.00
14818;BME280;7500;57.698;11.986;2023-02-20T02:28:43;100486.94;;;7.60;100.00
14818;BME280;7500;57.698;11.986;2023-02-20T02:32:00;100470.03;;;7.65;100.00
14818;BME280;7500;57.698;11.986;2023-02-20T02:34:53;100414.63;;;7.51;100.00
14818;BME280;7500;57.698;11.986;2023-02-20T02:37:30;100405.63;;;7.57;100.00
14818;BME280;7500;57.698;11.986;2023-02-20T02:40:03;100396.53;;;7.45;100.00
14818;BME280;7500;57.698;11.986;2023-02-20T02:42:41;100400.72;;;7.49;100.00
14818;BME280;7500;57.698;11.986;2023-02-20T02:45:17;100363.47;;;7.60;100.00
14818;BME280;7500;57.698;11.986;2023-02-20T02:47:48;100349.19;;;7.65;100.00
14818;BME280;7500;57.698;11.986;2023-02-20T02:50:20;100333.88;;;7.56;100.00
14818;BME280;7500;57.698;11.986;2023-02-20T02:52:50;100335.06;;;7.49;100.00
14818;BME280;7500;57.698;11.986;2023-02-20T02:55:20;100346.41;;;7.68;100.00
14818;BME280;7500;57.698;11.986;2023-02-20T02:57:48;100329.75;;;7.69;100.00
14818;BME280;7500;57.698;11.986;2023-02-20T03:00:18;100315.13;;;7.64;100.00
14818;BME280;7500;57.698;11.986;2023-02-20T03:02:53;100321.94;;;7.68;100.00
14818;BME280;7500;57.698;11.986;2023-02-20T03:05:24;100553.41;;;7.82;100.00
14818;BME280;7500;57.698;11.986;2023-02-20T03:08:07;100611.59;;;7.73;100.00
14818;BME280;7500;57.698;11.986;2023-02-20T03:10:39;100611.72;;;7.89;100.00
14818;BME280;7500;57.698;11.986;2023-02-20T03:13:08;100604.13;;;8.03;100.00
14818;BME280;7500;57.698;11.986;2023-02-20T03:15:40;100594.06;;;8.13;100.00
14818;BME280;7500;57.698;11.986;2023-02-20T03:18:15;100557.19;;;8.14;100.00
14818;BME280;7500;57.698;11.986;2023-02-20T03:20:49;100520.97;;;8.01;100.00
14818;BME280;7500;57.698;11.986;2023-02-20T03:23:22;100472.94;;;7.97;100.00
14818;BME280;7500;57.698;11.986;2023-02-20T03:25:53;100423.53;;;8.05;100.00
14818;BME280;7500;57.698;11.986;2023-02-20T03:28:24;100528.03;;;8.00;100.00
14818;BME280;7500;57.698;11.986;2023-02-20T03:30:55;100514.59;;;8.06;100.00
14818;BME280;7500;57.698;11.986;2023-02-20T03:33:29;100663.59;;;8.06;100.00
14818;BME280;7500;57.698;11.986;2023-02-20T03:36:20;100782.09;;;8.01;100.00
14818;BME280;7500;57.698;11.986;2023-02-20T03:39:12;100853.16;;;8.21;100.00
14818;BME280;7500;57.698;11.986;2023-02-20T03:41:59;100824.31;;;8.20;100.00
14818;BME280;7500;57.698;11.986;2023-02-20T03:44:44;100770.06;;;8.17;100.00
14818;BME280;7500;57.698;11.986;2023-02-20T03:47:13;100667.22;;;8.03;100.00
14818;BME280;7500;57.698;11.986;2023-02-20T03:49:42;100744.31;;;8.25;100.00
14818;BME280;7500;57.698;11.986;2023-02-20T03:52:10;100771.53;;;8.24;100.00
14818;BME280;7500;57.698;11.986;2023-02-20T03:54:40;100682.09;;;8.24;100.00
14818;BME280;7500;57.698;11.986;2023-02-20T03:57:11;100590.44;;;8.35;100.00
14818;BME280;7500;57.698;11.986;2023-02-20T03:59:41;100465.63;;;8.42;100.00
14818;BME280;7500;57.698;11.986;2023-02-20T04:02:13;100387.50;;;8.61;100.00
14818;BME280;7500;57.698;11.986;2023-02-20T04:04:46;100351.13;;;8.52;100.00
14818;BME280;7500;57.698;11.986;2023-02-20T04:07:18;100287.69;;;8.58;100.00
14818;BME280;7500;57.698;11.986;2023-02-20T04:09:48;100261.31;;;8.60;100.00
14818;BME280;7500;57.698;11.986;2023-02-20T04:12:18;100249.50;;;8.67;100.00
14818;BME280;7500;57.698;11.986;2023-02-20T04:14:48;100227.81;;;8.46;100.00
14818;BME280;7500;57.698;11.986;2023-02-20T04:17:22;100194.03;;;8.71;100.00
14818;BME280;7500;57.698;11.986;2023-02-20T04:19:50;100159.84;;;8.54;100.00
14818;BME280;7500;57.698;11.986;2023-02-20T04:22:21;100144.41;;;8.48;100.00
14818;BME280;7500;57.698;11.986;2023-02-20T04:24:53;100171.75;;;8.78;100.00
14818;BME280;7500;57.698;11.986;2023-02-20T04:27:22;100152.13;;;8.84;100.00
14818;BME280;7500;57.698;11.986;2023-02-20T04:29:49;100144.75;;;8.90;100.00
14818;BME280;7500;57.698;11.986;2023-02-20T04:32:16;100127.53;;;9.00;100.00
14818;BME280;7500;57.698;11.986;2023-02-20T04:34:43;100104.25;;;8.93;100.00
14818;BME280;7500;57.698;11.986;2023-02-20T04:37:12;100084.56;;;8.99;100.00
14818;BME280;7500;57.698;11.986;2023-02-20T04:39:40;100068.66;;;9.01;100.00
14818;BME280;7500;57.698;11.986;2023-02-20T04:42:09;100077.75;;;9.11;100.00
14818;BME280;7500;57.698;11.986;2023-02-20T04:44:36;100055.78;;;9.12;100.00
14818;BME280;7500;57.698;11.986;2023-02-20T04:47:06;100038.09;;;9.14;100.00
14818;BME280;7500;57.698;11.986;2023-02-20T04:49:33;100036.63;;;9.08;100.00
14818;BME280;7500;57.698;11.986;2023-02-20T04:52:00;100023.56;;;9.22;100.00
14818;BME280;7500;57.698;11.986;2023-02-20T04:54:27;100033.97;;;9.24;100.00
14818;BME280;7500;57.698;11.986;2023-02-20T04:56:54;100022.31;;;9.14;100.00
14818;BME280;7500;57.698;11.986;2023-02-20T04:59:22;100021.22;;;9.32;100.00
14818;BME280;7500;57.698;11.986;2023-02-20T05:01:50;100016.72;;;9.34;100.00
14818;BME280;7500;57.698;11.986;2023-02-20T05:04:19;100042.59;;;9.12;100.00
14818;BME280;7500;57.698;11.986;2023-02-20T05:06:48;100024.38;;;9.23;100.00
14818;BME280;7500;57.698;11.986;2023-02-20T05:09:16;100021.00;;;9.21;100.00
14818;BME280;7500;57.698;11.986;2023-02-20T05:11:43;100014.38;;;9.29;100.00
14818;BME280;7500;57.698;11.986;2023-02-20T05:14:11;101074.00;;;9.34;100.00
14818;BME280;7500;57.698;11.986;2023-02-20T05:16:40;101638.56;;;9.67;100.00
14818;BME280;7500;57.698;11.986;2023-02-20T05:19:10;101969.91;;;11.06;100.00
14818;BME280;7500;57.698;11.986;2023-02-20T05:21:37;102018.31;;;11.58;100.00
14818;BME280;7500;57.698;11.986;2023-02-20T05:24:24;101826.28;;;10.83;100.00
14818;BME280;7500;57.698;11.986;2023-02-20T05:26:52;101448.41;;;9.76;100.00
14818;BME280;7500;57.698;11.986;2023-02-20T05:29:19;101233.94;;;9.54;100.00
14818;BME280;7500;57.698;11.986;2023-02-20T05:31:48;101079.34;;;9.53;100.00
14818;BME280;7500;57.698;11.986;2023-02-20T05:34:15;100939.75;;;9.51;100.00
14818;BME280;7500;57.698;11.986;2023-02-20T05:36:42;100822.41;;;9.43;100.00
14818;BME280;7500;57.698;11.986;2023-02-20T05:39:09;100600.47;;;9.38;100.00
14818;BME280;7500;57.698;11.986;2023-02-20T05:41:37;100439.28;;;9.47;100.00
14818;BME280;7500;57.698;11.986;2023-02-20T05:44:04;100327.91;;;9.43;100.00
14818;BME280;7500;57.698;11.986;2023-02-20T05:46:34;100238.16;;;9.31;100.00
14818;BME280;7500;57.698;11.986;2023-02-20T05:49:07;100155.91;;;9.26;100.00
14818;BME280;7500;57.698;11.986;2023-02-20T05:51:35;100099.81;;;9.24;100.00
14818;BME280;7500;57.698;11.986;2023-02-20T05:54:03;100069.59;;;9.31;100.00
14818;BME280;7500;57.698;11.986;2023-02-20T05:56:30;100033.56;;;9.31;100.00
14818;BME280;7500;57.698;11.986;2023-02-20T05:58:59;100003.66;;;9.32;100.00
14818;BME280;7500;57.698;11.986;2023-02-20T06:01:27;99993.03;;;9.34;100.00
14818;BME280;7500;57.698;11.986;2023-02-20T06:03:56;99970.91;;;9.36;100.00
14818;BME280;7500;57.698;11.986;2023-02-20T06:06:32;99953.75;;;9.45;100.00
14818;BME280;7500;57.698;11.986;2023-02-20T06:09:00;99930.25;;;9.26;100.00
14818;BME280;7500;57.698;11.986;2023-02-20T06:11:27;99901.78;;;9.33;100.00
14818;BME280;7500;57.698;11.986;2023-02-20T06:13:54;99889.66;;;9.44;100.00
14818;BME280;7500;57.698;11.986;2023-02-20T06:16:22;99878.94;;;9.33;100.00
14818;BME280;7500;57.698;11.986;2023-02-20T06:18:49;99898.53;;;9.14;100.00
14818;BME280;7500;57.698;11.986;2023-02-20T06:21:16;99871.06;;;9.18;100.00
14818;BME280;7500;57.698;11.986;2023-02-20T06:23:51;100110.28;;;9.41;100.00
14818;BME280;7500;57.698;11.986;2023-02-20T06:26:19;100078.63;;;9.56;100.00
14818;BME280;7500;57.698;11.986;2023-02-20T06:28:46;100066.94;;;9.76;100.00
14818;BME280;7500;57.698;11.986;2023-02-20T06:31:20;100029.50;;;9.85;100.00
14818;BME280;7500;57.698;11.986;2023-02-20T06:33:47;100003.28;;;9.68;100.00
14818;BME280;7500;57.698;11.986;2023-02-20T06:36:19;99968.59;;;9.46;100.00
14818;BME280;7500;57.698;11.986;2023-02-20T06:38:46;99943.22;;;9.59;100.00
14818;BME280;7500;57.698;11.986;2023-02-20T06:41:15;99930.81;;;9.75;100.00
14818;BME280;7500;57.698;11.986;2023-02-20T06:43:41;61266.59;;;-138.17;100.00
14818;BME280;7500;57.698;11.986;2023-02-20T06:46:08;61266.59;;;-138.17;100.00
14818;BME280;7500;57.698;11.986;2023-02-20T06:48:42;61266.59;;;-138.17;100.00
14818;BME280;7500;57.698;11.986;2023-02-20T06:51:09;61266.59;;;-138.17;100.00
14818;BME280;7500;57.698;11.986;2023-02-20T06:53:36;61266.59;;;-138.17;100.00
14818;BME280;7500;57.698;11.986;2023-02-20T06:56:07;61266.59;;;-138.17;100.00
14818;BME280;7500;57.698;11.986;2023-02-20T06:58:36;61266.59;;;-138.17;100.00
14818;BME280;7500;57.698;11.986;2023-02-20T07:01:03;61266.59;;;-138.17;100.00
14818;BME280;7500;57.698;11.986;2023-02-20T07:03:30;61266.59;;;-138.17;100.00
14818;BME280;7500;57.698;11.986;2023-02-20T07:05:57;61266.59;;;-138.17;100.00
14818;BME280;7500;57.698;11.986;2023-02-20T07:08:24;61266.59;;;-138.17;100.00
14818;BME280;7500;57.698;11.986;2023-02-20T07:10:50;61266.59;;;-138.17;100.00
14818;BME280;7500;57.698;11.986;2023-02-20T07:13:20;61266.59;;;-138.17;100.00
14818;BME280;7500;57.698;11.986;2023-02-20T07:15:48;61266.59;;;-138.17;100.00
14818;BME280;7500;57.698;11.986;2023-02-20T07:18:15;61266.59;;;-138.17;100.00
14818;BME280;7500;57.698;11.986;2023-02-20T07:20:42;61266.59;;;-138.17;100.00
14818;BME280;7500;57.698;11.986;2023-02-20T07:23:09;61266.59;;;-138.17;100.00
14818;BME280;7500;57.698;11.986;2023-02-20T07:25:36;61266.59;;;-138.17;100.00
14818;BME280;7500;57.698;11.986;2023-02-20T07:28:03;61266.59;;;-138.17;100.00
14818;BME280;7500;57.698;11.986;2023-02-20T07:30:32;61266.59;;;-138.17;100.00
14818;BME280;7500;57.698;11.986;2023-02-20T07:33:00;61266.59;;;-138.17;100.00
14818;BME280;7500;57.698;11.986;2023-02-20T07:35:27;61266.59;;;-138.17;100.00
14818;BME280;7500;57.698;11.986;2023-02-20T07:37:54;61266.59;;;-138.17;100.00
14818;BME280;7500;57.698;11.986;2023-02-20T07:40:21;61266.59;;;-138.17;100.00
14818;BME280;7500;57.698;11.986;2023-02-20T07:42:48;61266.59;;;-138.17;100.00
14818;BME280;7500;57.698;11.986;2023-02-20T07:45:15;61266.59;;;-138.17;100.00
14818;BME280;7500;57.698;11.986;2023-02-20T07:47:42;61266.59;;;-138.17;100.00
14818;BME280;7500;57.698;11.986;2023-02-20T07:50:10;61266.59;;;-138.17;100.00
14818;BME280;7500;57.698;11.986;2023-02-20T07:52:37;61266.59;;;-138.17;100.00
14818;BME280;7500;57.698;11.986;2023-02-20T07:55:04;61266.59;;;-138.17;100.00
14818;BME280;7500;57.698;11.986;2023-02-20T07:57:34;61266.59;;;-138.17;100.00
14818;BME280;7500;57.698;11.986;2023-02-20T08:00:02;61266.59;;;-138.17;100.00
14818;BME280;7500;57.698;11.986;2023-02-20T08:02:29;61266.59;;;-138.17;100.00
14818;BME280;7500;57.698;11.986;2023-02-20T08:04:56;61266.59;;;-138.17;100.00
14818;BME280;7500;57.698;11.986;2023-02-20T08:07:24;61266.59;;;-138.17;100.00
14818;BME280;7500;57.698;11.986;2023-02-20T08:09:51;61266.59;;;-138.17;100.00
14818;BME280;7500;57.698;11.986;2023-02-20T08:12:18;61266.59;;;-138.17;100.00
14818;BME280;7500;57.698;11.986;2023-02-20T08:14:45;61266.59;;;-138.17;100.00
14818;BME280;7500;57.698;11.986;2023-02-20T08:17:11;61266.59;;;-138.17;100.00
14818;BME280;7500;57.698;11.986;2023-02-20T08:19:38;61266.59;;;-138.17;100.00
14818;BME280;7500;57.698;11.986;2023-02-20T08:22:05;61266.59;;;-138.17;100.00
14818;BME280;7500;57.698;11.986;2023-02-20T08:24:34;61266.59;;;-138.17;100.00
14818;BME280;7500;57.698;11.986;2023-02-20T08:27:01;61266.59;;;-138.17;100.00
14818;BME280;7500;57.698;11.986;2023-02-20T08:29:27;61266.59;;;-138.17;100.00
14818;BME280;7500;57.698;11.986;2023-02-20T08:31:54;61266.59;;;-138.17;100.00
14818;BME280;7500;57.698;11.986;2023-02-20T08:34:21;61266.59;;;-138.17;100.00
14818;BME280;7500;57.698;11.986;2023-02-20T08:36:48;61266.59;;;-138.17;100.00
14818;BME280;7500;57.698;11.986;2023-02-20T08:39:15;61266.59;;;-138.17;100.00
14818;BME280;7500;57.698;11.986;2023-02-20T08:41:44;61266.59;;;-138.17;100.00
14818;BME280;7500;57.698;11.986;2023-02-20T08:44:11;61266.59;;;-138.17;100.00
14818;BME280;7500;57.698;11.986;2023-02-20T08:46:44;61266.59;;;-138.17;100.00
14818;BME280;7500;57.698;11.986;2023-02-20T08:49:11;61266.59;;;-138.17;100.00
14818;BME280;7500;57.698;11.986;2023-02-20T08:51:38;61266.59;;;-138.17;100.00
14818;BME280;7500;57.698;11.986;2023-02-20T08:54:05;61266.59;;;-138.17;100.00
14818;BME280;7500;57.698;11.986;2023-02-20T08:56:32;61266.59;;;-138.17;100.00
14818;BME280;7500;57.698;11.986;2023-02-20T08:59:01;61266.59;;;-138.17;100.00
14818;BME280;7500;57.698;11.986;2023-02-20T09:01:28;61266.59;;;-138.17;100.00
14818;BME280;7500;57.698;11.986;2023-02-20T09:03:54;61266.59;;;-138.17;100.00
14818;BME280;7500;57.698;11.986;2023-02-20T09:06:21;61266.59;;;-138.17;100.00
14818;BME280;7500;57.698;11.986;2023-02-20T09:08:50;61266.59;;;-138.17;100.00
14818;BME280;7500;57.698;11.986;2023-02-20T09:11:17;61266.59;;;-138.17;100.00
14818;BME280;7500;57.698;11.986;2023-02-20T09:13:45;61266.59;;;-138.17;100.00
14818;BME280;7500;57.698;11.986;2023-02-20T09:16:17;61266.59;;;-138.17;100.00
14818;BME280;7500;57.698;11.986;2023-02-20T09:18:44;61266.59;;;-138.17;100.00
14818;BME280;7500;57.698;11.986;2023-02-20T09:21:13;61266.59;;;-138.17;100.00
14818;BME280;7500;57.698;11.986;2023-02-20T09:23:40;61266.59;;;-138.17;100.00
14818;BME280;7500;57.698;11.986;2023-02-20T09:26:07;61266.59;;;-138.17;100.00
14818;BME280;7500;57.698;11.986;2023-02-20T09:28:34;61266.59;;;-138.17;100.00
14818;BME280;7500;57.698;11.986;2023-02-20T09:31:01;61266.59;;;-138.17;100.00
14818;BME280;7500;57.698;11.986;2023-02-20T09:33:30;61266.59;;;-138.17;100.00
14818;BME280;7500;57.698;11.986;2023-02-20T09:35:57;61266.59;;;-138.17;100.00
14818;BME280;7500;57.698;11.986;2023-02-20T09:38:24;61266.59;;;-138.17;100.00
14818;BME280;7500;57.698;11.986;2023-02-20T09:40:55;61266.59;;;-138.17;100.00
14818;BME280;7500;57.698;11.986;2023-02-20T09:43:36;61266.59;;;-138.17;100.00
14818;BME280;7500;57.698;11.986;2023-02-20T09:46:09;61266.59;;;-138.17;100.00
14818;BME280;7500;57.698;11.986;2023-02-20T09:48:48;61266.59;;;-138.17;100.00
14818;BME280;7500;57.698;11.986;2023-02-20T09:51:19;61266.59;;;-138.17;100.00
14818;BME280;7500;57.698;11.986;2023-02-20T09:53:51;61266.59;;;-138.17;100.00
14818;BME280;7500;57.698;11.986;2023-02-20T09:56:20;61266.59;;;-138.17;100.00
14818;BME280;7500;57.698;11.986;2023-02-20T09:58:53;61266.59;;;-138.17;100.00
14818;BME280;7500;57.698;11.986;2023-02-20T10:01:24;61266.59;;;-138.17;100.00
14818;BME280;7500;57.698;11.986;2023-02-20T10:03:55;61266.59;;;-138.17;100.00
14818;BME280;7500;57.698;11.986;2023-02-20T10:06:25;61266.59;;;-138.17;100.00
14818;BME280;7500;57.698;11.986;2023-02-20T10:08:52;61266.59;;;-138.17;100.00
14818;BME280;7500;57.698;11.986;2023-02-20T10:11:31;61266.59;;;-138.17;100.00
14818;BME280;7500;57.698;11.986;2023-02-20T10:14:16;61266.59;;;-138.17;100.00
14818;BME280;7500;57.698;11.986;2023-02-20T10:16:53;61266.59;;;-138.17;100.00
14818;BME280;7500;57.698;11.986;2023-02-20T10:19:29;61266.59;;;-138.17;100.00
14818;BME280;7500;57.698;11.986;2023-02-20T10:22:05;61266.59;;;-138.17;100.00
14818;BME280;7500;57.698;11.986;2023-02-20T10:24:44;61266.59;;;-138.17;100.00
14818;BME280;7500;57.698;11.986;2023-02-20T10:27:30;61266.59;;;-138.17;100.00
14818;BME280;7500;57.698;11.986;2023-02-20T10:30:03;61266.59;;;-138.17;100.00
14818;BME280;7500;57.698;11.986;2023-02-20T10:32:36;61266.59;;;-138.17;100.00
14818;BME280;7500;57.698;11.986;2023-02-20T10:35:08;61266.59;;;-138.17;100.00
14818;BME280;7500;57.698;11.986;2023-02-20T10:37:39;61266.59;;;-138.17;100.00
14818;BME280;7500;57.698;11.986;2023-02-20T10:40:16;61266.59;;;-138.17;100.00
14818;BME280;7500;57.698;11.986;2023-02-20T10:42:50;61266.59;;;-138.17;100.00
14818;BME280;7500;57.698;11.986;2023-02-20T10:45:25;61266.59;;;-138.17;100.00
14818;BME280;7500;57.698;11.986;2023-02-20T10:47:56;61266.59;;;-138.17;100.00
14818;BME280;7500;57.698;11.986;2023-02-20T10:50:30;61266.59;;;-138.17;100.00
14818;BME280;7500;57.698;11.986;2023-02-20T10:53:01;61266.59;;;-138.17;100.00
14818;BME280;7500;57.698;11.986;2023-02-20T10:55:35;61266.59;;;-138.17;100.00
14818;BME280;7500;57.698;11.986;2023-02-20T10:58:07;61266.59;;;-138.17;100.00
14818;BME280;7500;57.698;11.986;2023-02-20T11:00:40;61266.59;;;-138.17;100.00
14818;BME280;7500;57.698;11.986;2023-02-20T11:03:13;61266.59;;;-138.17;100.00
14818;BME280;7500;57.698;11.986;2023-02-20T11:05:46;61266.59;;;-138.17;100.00
14818;BME280;7500;57.698;11.986;2023-02-20T11:08:14;61266.59;;;-138.17;100.00
14818;BME280;7500;57.698;11.986;2023-02-20T11:10:45;61266.59;;;-138.17;100.00
14818;BME280;7500;57.698;11.986;2023-02-20T11:13:14;61266.59;;;-138.17;100.00
14818;BME280;7500;57.698;11.986;2023-02-20T11:15:44;61266.59;;;-138.17;100.00
14818;BME280;7500;57.698;11.986;2023-02-20T11:18:20;61266.59;;;-138.17;100.00
14818;BME280;7500;57.698;11.986;2023-02-20T11:20:52;61266.59;;;-138.17;100.00
14818;BME280;7500;57.698;11.986;2023-02-20T11:23:40;61266.59;;;-138.17;100.00
14818;BME280;7500;57.698;11.986;2023-02-20T11:26:26;61266.59;;;-138.17;100.00
14818;BME280;7500;57.698;11.986;2023-02-20T11:29:02;61266.59;;;-138.17;100.00
14818;BME280;7500;57.698;11.986;2023-02-20T11:31:30;61266.59;;;-138.17;100.00
14818;BME280;7500;57.698;11.986;2023-02-20T11:33:57;61266.59;;;-138.17;100.00
14818;BME280;7500;57.698;11.986;2023-02-20T11:36:31;61266.59;;;-138.17;100.00
14818;BME280;7500;57.698;11.986;2023-02-20T11:39:11;61266.59;;;-138.17;100.00
14818;BME280;7500;57.698;11.986;2023-02-20T11:41:42;61266.59;;;-138.17;100.00
14818;BME280;7500;57.698;11.986;2023-02-20T11:44:24;61266.59;;;-138.17;100.00
14818;BME280;7500;57.698;11.986;2023-02-20T11:47:25;61266.59;;;-138.17;100.00
14818;BME280;7500;57.698;11.986;2023-02-20T11:50:10;61266.59;;;-138.17;100.00
14818;BME280;7500;57.698;11.986;2023-02-20T11:52:54;61266.59;;;-138.17;100.00
14818;BME280;7500;57.698;11.986;2023-02-20T11:55:22;61266.59;;;-138.17;100.00
14818;BME280;7500;57.698;11.986;2023-02-20T11:57:50;61266.59;;;-138.17;100.00
14818;BME280;7500;57.698;11.986;2023-02-20T12:00:19;61266.59;;;-138.17;100.00
14818;BME280;7500;57.698;11.986;2023-02-20T12:02:51;61266.59;;;-138.17;100.00
14818;BME280;7500;57.698;11.986;2023-02-20T12:05:20;61266.59;;;-138.17;100.00
14818;BME280;7500;57.698;11.986;2023-02-20T12:07:57;61266.59;;;-138.17;100.00
14818;BME280;7500;57.698;11.986;2023-02-20T12:10:33;61266.59;;;-138.17;100.00
14818;BME280;7500;57.698;11.986;2023-02-20T12:13:02;61266.59;;;-138.17;100.00
14818;BME280;7500;57.698;11.986;2023-02-20T12:15:29;61266.59;;;-138.17;100.00
14818;BME280;7500;57.698;11.986;2023-02-20T12:21:03;61266.59;;;-138.17;100.00
14818;BME280;7500;57.698;11.986;2023-02-20T12:23:45;61266.59;;;-138.17;100.00
14818;BME280;7500;57.698;11.986;2023-02-20T12:26:32;61266.59;;;-138.17;100.00
14818;BME280;7500;57.698;11.986;2023-02-20T12:29:10;61266.59;;;-138.17;100.00
14818;BME280;7500;57.698;11.986;2023-02-20T12:31:51;61266.59;;;-138.17;100.00
14818;BME280;7500;57.698;11.986;2023-02-20T12:34:33;61266.59;;;-138.17;100.00
14818;BME280;7500;57.698;11.986;2023-02-20T12:37:10;61266.59;;;-138.17;100.00
14818;BME280;7500;57.698;11.986;2023-02-20T12:39:53;61266.59;;;-138.17;100.00
14818;BME280;7500;57.698;11.986;2023-02-20T12:42:26;61266.59;;;-138.17;100.00
14818;BME280;7500;57.698;11.986;2023-02-20T12:45:15;61266.59;;;-138.17;100.00
14818;BME280;7500;57.698;11.986;2023-02-20T12:47:44;61266.59;;;-138.17;100.00
14818;BME280;7500;57.698;11.986;2023-02-20T12:50:35;61266.59;;;-138.17;100.00
14818;BME280;7500;57.698;11.986;2023-02-20T12:53:16;61266.59;;;-138.17;100.00
14818;BME280;7500;57.698;11.986;2023-02-20T12:55:51;61266.59;;;-138.17;100.00
14818;BME280;7500;57.698;11.986;2023-02-20T12:58:30;61266.59;;;-138.17;100.00
14818;BME280;7500;57.698;11.986;2023-02-20T13:01:04;61266.59;;;-138.17;100.00
14818;BME280;7500;57.698;11.986;2023-02-20T13:03:38;61266.59;;;-138.17;100.00
14818;BME280;7500;57.698;11.986;2023-02-20T13:06:07;61266.59;;;-138.17;100.00